createdAt,value
2023-02-19T00:00:20.892Z,100085.90
2023-02-19T00:05:43.635Z,100085.14
2023-02-19T00:10:46.360Z,100079.38
2023-02-19T00:15:49.164Z,100067.92
2023-02-19T00:20:52.019Z,100070.15
2023-02-19T00:25:55.430Z,100074.92
2023-02-19T00:31:10.310Z,100073.48
2023-02-19T00:36:13.949Z,100073.04
2023-02-19T00:41:21.482Z,100065.20
2023-02-19T00:46:30.390Z,100059.17
2023-02-19T00:51:36.346Z,100065.15
2023-02-19T00:56:39.125Z,100058.30
2023-02-19T01:01:44.468Z,100060.20
2023-02-19T01:06:48.892Z,100065.68
2023-02-19T01:11:51.694Z,100069.38
2023-02-19T01:16:54.430Z,100067.08
2023-02-19T01:21:57.213Z,100064.51
2023-02-19T01:26:59.932Z,100061.52
2023-02-19T01:32:03.013Z,100062.70
2023-02-19T01:37:08.141Z,100055.36
2023-02-19T01:42:15.402Z,100055.67
2023-02-19T01:47:18.293Z,100064.79
2023-02-19T01:52:31.800Z,100066.98
2023-02-19T01:57:37.715Z,100067.29
2023-02-19T02:02:42.688Z,100062.80
2023-02-19T02:08:04.234Z,100062.25
2023-02-19T02:13:07.099Z,100063.56
2023-02-19T02:18:40.191Z,100069.31
2023-02-19T02:24:11.194Z,100062.73
2023-02-19T02:29:23.897Z,100060.61
2023-02-19T02:34:48.277Z,100062.66
2023-02-19T02:39:50.995Z,100064.07
2023-02-19T02:45:13.980Z,100071.84
2023-02-19T02:50:26.056Z,100070.92
2023-02-19T02:55:30.711Z,100063.98
2023-02-19T03:00:52.868Z,100066.11
2023-02-19T03:06:00.201Z,100061.34
2023-02-19T03:11:25.139Z,100054.83
2023-02-19T03:16:47.978Z,100052.34
2023-02-19T03:22:03.270Z,100055.34
2023-02-19T03:27:06.074Z,100056.20
2023-02-19T03:32:14.689Z,100059.43
2023-02-19T03:37:24.512Z,100067.58
2023-02-19T03:42:42.660Z,100062.09
2023-02-19T03:48:02.926Z,100053.30
2023-02-19T03:53:31.567Z,100045.48
2023-02-19T03:58:45.061Z,100043.88
2023-02-19T04:04:14.243Z,100027.67
2023-02-19T04:09:17.104Z,100031.82
2023-02-19T04:14:25.237Z,100028.36
2023-02-19T04:19:29.408Z,100038.48
2023-02-19T04:24:44.901Z,100031.62
2023-02-19T04:29:48.045Z,100022.61
2023-02-19T04:34:54.240Z,100015.04
2023-02-19T04:39:57.307Z,100005.34
2023-02-19T04:45:00.141Z,100006.25
2023-02-19T04:50:03.284Z,100004.91
2023-02-19T04:55:07.236Z,100010.92
2023-02-19T05:00:12.779Z,100022.17
2023-02-19T05:05:15.698Z,100017.45
2023-02-19T05:10:18.587Z,100003.98
2023-02-19T05:15:21.412Z,100010.52
2023-02-19T05:20:24.215Z,100008.49
2023-02-19T05:25:27.111Z,99998.94
2023-02-19T05:30:29.930Z,99995.20
2023-02-19T05:35:32.781Z,99997.80
2023-02-19T05:40:36.616Z,99994.11
2023-02-19T05:45:40.198Z,99983.25
2023-02-19T05:50:42.978Z,99986.45
2023-02-19T05:55:45.804Z,99989.50
2023-02-19T06:00:48.739Z,99984.45
2023-02-19T06:05:52.794Z,99986.34
2023-02-19T06:10:55.530Z,99989.70
2023-02-19T06:15:58.362Z,99985.38
2023-02-19T06:21:05.651Z,99988.08
2023-02-19T06:26:19.644Z,99994.48
2023-02-19T06:31:22.839Z,99997.89
2023-02-19T06:36:25.674Z,100007.80
2023-02-19T06:41:28.398Z,100011.21
2023-02-19T06:46:31.213Z,100010.48
2023-02-19T06:51:34.602Z,100006.88
2023-02-19T06:56:39.707Z,99999.09
2023-02-19T07:01:42.771Z,100007.63
2023-02-19T07:06:45.587Z,100011.35
2023-02-19T07:11:48.501Z,100010.20
2023-02-19T07:16:51.295Z,100010.52
2023-02-19T07:21:54.047Z,100020.23
2023-02-19T07:26:56.950Z,100016.92
2023-02-19T07:31:59.799Z,100024.11
2023-02-19T07:37:02.571Z,100026.45
2023-02-19T07:42:05.513Z,100028.06
2023-02-19T07:47:08.351Z,100032.02
2023-02-19T07:52:11.178Z,100029.68
2023-02-19T07:57:14.639Z,100033.63
2023-02-19T08:02:37.679Z,100029.41
2023-02-19T08:07:40.608Z,100034.15
2023-02-19T08:13:02.399Z,100035.56
2023-02-19T08:18:11.459Z,100042.27
2023-02-19T08:23:14.411Z,100045.36
2023-02-19T08:28:17.289Z,100049.66
2023-02-19T08:33:21.367Z,100052.36
2023-02-19T08:38:24.163Z,100057.05
2023-02-19T08:43:27.056Z,100064.87
2023-02-19T08:48:29.987Z,100068.00
2023-02-19T08:53:32.928Z,100064.21
2023-02-19T08:58:36.306Z,100064.08
2023-02-19T09:03:39.602Z,100066.11
2023-02-19T09:08:42.507Z,100061.73
2023-02-19T09:13:45.449Z,100056.55
2023-02-19T09:37:46.260Z,100068.10
2023-02-19T09:44:31.226Z,100066.52
2023-02-19T09:51:19.327Z,100074.80
2023-02-19T10:11:57.299Z,100077.64
2023-02-19T10:17:06.830Z,100079.50
2023-02-19T10:29:54.231Z,100074.58
2023-02-19T10:53:55.395Z,100091.42
2023-02-19T11:00:19.111Z,100093.17
2023-02-19T11:05:35.223Z,100101.89
2023-02-19T11:12:16.400Z,100099.61
2023-02-19T11:17:27.819Z,100099.79
2023-02-19T11:22:46.982Z,100103.06
2023-02-19T11:28:06.937Z,100101.88
2023-02-19T11:33:16.200Z,100100.77
2023-02-19T11:44:46.573Z,100099.27
2023-02-19T11:57:16.254Z,100105.64
2023-02-19T12:02:27.484Z,100110.18
2023-02-19T12:08:37.586Z,100108.88
2023-02-19T12:21:21.176Z,100126.61
2023-02-19T12:26:42.890Z,100133.62
2023-02-19T12:38:45.308Z,100141.41
2023-02-19T12:51:22.184Z,100162.95
2023-02-19T13:03:34.866Z,100175.02
2023-02-19T13:09:06.494Z,100168.59
2023-02-19T13:21:21.492Z,100173.31
2023-02-19T13:26:46.296Z,100175.89
2023-02-19T13:32:21.090Z,100179.35
2023-02-19T13:44:08.252Z,100191.48
2023-02-19T14:16:01.679Z,100224.48
2023-02-19T14:28:48.258Z,100251.48
2023-02-19T14:41:48.462Z,100251.20
2023-02-19T14:53:22.467Z,100259.42
2023-02-19T14:58:47.710Z,100270.23
2023-02-19T15:04:27.625Z,100277.29
2023-02-19T15:09:40.013Z,100279.78
2023-02-19T15:29:04.495Z,100318.05
2023-02-19T15:59:46.530Z,100349.59
2023-02-19T16:12:44.903Z,100361.59
2023-02-19T16:18:21.722Z,100376.55
2023-02-19T16:29:32.608Z,100396.46
2023-02-19T16:36:21.653Z,100405.61
2023-02-19T16:50:20.758Z,100425.46
2023-02-19T17:12:19.632Z,100442.41
2023-02-19T17:19:08.675Z,100447.68
2023-02-19T17:24:19.375Z,100450.02
2023-02-19T17:29:22.744Z,100456.39
2023-02-19T17:34:25.610Z,100461.40
2023-02-19T17:39:28.398Z,100469.30
2023-02-19T17:46:23.710Z,100478.07
2023-02-19T17:51:43.770Z,100490.52
2023-02-19T17:56:55.061Z,100501.36
2023-02-19T18:01:57.835Z,100509.56
2023-02-19T18:07:01.009Z,100517.95
2023-02-19T18:12:04.922Z,100529.58
2023-02-19T18:17:07.756Z,100540.46
2023-02-19T18:22:56.785Z,100544.86
2023-02-19T18:28:39.739Z,100549.48
2023-02-19T18:46:27.808Z,100558.45
2023-02-19T18:51:46.956Z,100563.74
2023-02-19T18:56:53.153Z,100564.92
2023-02-19T19:08:01.808Z,100585.88
2023-02-19T19:13:04.853Z,100596.82
2023-02-19T19:18:12.070Z,100609.27
2023-02-19T19:24:20.236Z,100612.40
2023-02-19T20:06:21.860Z,100649.14
2023-02-19T20:11:24.691Z,100649.55
2023-02-19T20:17:33.210Z,100651.23
2023-02-19T20:52:53.595Z,100697.64
2023-02-19T20:59:02.145Z,100703.11
2023-02-19T21:10:16.064Z,100715.66
2023-02-19T21:15:20.177Z,100720.35
2023-02-19T21:20:29.040Z,100715.27
2023-02-19T21:25:33.292Z,100734.02
2023-02-19T21:30:36.404Z,100732.12
2023-02-19T21:35:40.291Z,100721.97
2023-02-19T22:11:27.603Z,100740.46
2023-02-19T22:16:31.350Z,100750.33
2023-02-19T22:29:16.391Z,100765.58
2023-02-19T22:34:59.680Z,100768.97
2023-02-19T22:52:52.073Z,100755.95
2023-02-19T23:17:14.059Z,100741.56
2023-02-19T23:37:47.079Z,100762.40
2023-02-19T23:42:54.579Z,100768.69
